Date,TemperatureHighF,TemperatureAvgF,TemperatureLowF,DewpointHighF,DewpointAvgF,DewpointLowF,HumidityHigh,HumidityAvg,HumidityLow,PressureMaxIn,PressureMinIn,WindSpeedMaxMPH,WindSpeedAvgMPH,GustSpeedMaxMPH,PrecipitationSumIn
2013-10-1,86,79,69,70,69,66,90,72,58,29.82,29.73,7,1,13,0.00
2013-10-2,87,77,66,67,64,59,91,67,39,29.80,29.72,6,1,12,0.00
2013-10-3,86,77,69,71,64,57,77,64,48,29.93,29.79,8,2,17,0.00
2013-10-4,82,74,68,66,62,57,84,66,44,29.95,29.90,8,2,20,0.00
2013-10-5,80,72,67,61,57,53,72,58,45,29.95,29.89,7,1,13,0.00
2013-10-6,78,70,62,58,53,49,68,56,43,30.06,29.90,8,2,16,0.00
2013-10-7,78,68,57,52,49,46,71,52,34,30.12,30.04,8,2,17,0.00
2013-10-8,87,71,55,53,41,30,74,41,13,30.11,30.00,6,1,14,0.00
2013-10-9,92,78,67,47,31,26,44,20,11,30.03,29.92,6,2,16,0.00
2013-10-10,72,68,65,53,45,33,56,45,30,30.01,29.95,2,0,5,0.00
2013-10-11,85,72,60,66,58,44,85,61,42,30.06,30.00,6,1,12,0.00
2013-10-12,83,72,61,65,62,58,92,73,44,30.04,29.92,6,1,12,0.00
2013-10-13,83,73,63,69,64,59,88,76,53,29.92,29.82,6,1,12,0.00
2013-10-14,84,73,65,68,65,62,92,77,54,29.97,29.83,6,1,13,0.00
2013-10-15,83,72,61,67,60,52,93,70,34,30.01,29.95,7,1,16,0.00
2013-10-16,83,72,60,67,63,56,90,75,51,29.99,29.87,6,1,12,0.00
2013-10-17,84,72,62,68,63,59,92,75,51,29.89,29.78,6,1,10,0.00
2013-10-18,73,68,64,66,52,41,79,58,37,29.92,29.74,1,0,3,0.00
2013-10-19,78,71,64,63,60,59,86,69,54,30.12,30.04,7,1,13,0.00
2013-10-20,82,69,58,60,56,52,93,65,36,30.16,30.07,7,1,15,0.00
2013-10-21,88,74,58,52,44,39,78,39,19,30.09,29.95,7,2,16,0.00
2013-10-22,91,76,64,59,49,39,73,41,19,29.96,29.87,6,1,12,0.00
2013-10-23,84,71,60,64,57,51,87,63,36,29.98,29.91,6,1,12,0.00
2013-10-24,80,69,59,62,60,56,92,75,50,29.98,29.93,6,1,12,0.00
2013-10-25,80,70,58,62,57,54,91,67,44,30.00,29.92,7,1,13,0.00
2013-10-26,82,72,59,63,58,44,88,65,27,29.99,29.90,6,1,13,0.00
2013-10-27,80,69,58,65,60,56,94,76,54,29.99,29.93,6,1,13,0.00
2013-10-28,82,68,56,61,56,49,94,70,37,30.02,29.92,6,1,13,0.00
2013-10-29,92,73,54,61,46,36,79,45,15,29.92,29.78,5,1,16,0.00
2013-10-30,84,73,63,66,56,51,89,59,34,29.90,29.80,6,1,12,0.03
2013-10-31,87,73,63,64,55,51,88,57,30,29.94,29.85,7,1,16,0.28